Terminal Aerodrome Forecast
Issued by NWS Blacksburg, VA

Current Version | Previous Version | Text Only | Print | Product List | Glossary On
Versions: 1 2 3 4 5 6 7 8 9 10 11 12 13
000
FTUS41 KRNK 251140
TAFROA
TAF
KROA 251140Z 2512/2612 VRB04KT P6SM BKN250
     FM251500 06008KT P6SM FEW050 BKN250
     FM260000 07005KT P6SM BKN250=

USA.gov is the U.S. government's official web portal to all federal, state and local government web resources and services.